Time;durP1;ratioP1;P1;durP2;ratioP2;P2;SDS_P1;SDS_P2;PMS_P1;PMS_P2;Temp;Humidity;BMP_temperature;BMP_pressure;BME280_temperature;BME280_humidity;BME280_pressure;Samples;Min_cycle;Max_cycle;Signal;HPM_P1;HPM_P2
2021/04/15 00:01:05;;;;;;;9.48;0.90;;;22.30;77.10;;;;;;4983423;28;20518;-65
2021/04/15 00:03:33;;;;;;;2.92;0.80;;;22.40;76.70;;;;;;4991666;28;20391;-66
2021/04/15 00:06:06;;;;;;;3.33;0.90;;;22.50;76.80;;;;;;4989342;28;20559;-66
2021/04/15 00:08:34;;;;;;;5.90;1.10;;;22.50;79.50;;;;;;4987121;28;20042;-66
2021/04/15 00:11:02;;;;;;;9.52;1.38;;;22.80;78.60;;;;;;4982258;28;20039;-66
2021/04/15 00:13:39;;;;;;;8.20;1.02;;;22.90;78.00;;;;;;4982291;28;20034;-65
2021/04/15 00:16:08;;;;;;;7.97;0.90;;;23.00;76.60;;;;;;4987514;28;20022;-66
2021/04/15 00:18:37;;;;;;;2.80;0.70;;;23.00;77.40;;;;;;4991767;28;20069;-66
2021/04/15 00:21:06;;;;;;;6.90;0.95;;;23.10;77.50;;;;;;4991002;28;20526;-65
2021/04/15 00:23:33;;;;;;;5.65;1.35;;;23.00;75.30;;;;;;4992906;28;20054;-66
2021/04/15 00:26:03;;;;;;;7.15;1.23;;;23.00;75.50;;;;;;4983278;28;20391;-66
2021/04/15 00:28:30;;;;;;;9.65;1.10;;;23.00;75.70;;;;;;4986537;28;20439;-66
2021/04/15 00:30:57;;;;;;;8.98;1.00;;;23.30;77.20;;;;;;4993965;28;20060;-67
2021/04/15 00:33:25;;;;;;;12.40;2.33;;;23.40;75.30;;;;;;4988339;28;20035;-67
2021/04/15 00:35:53;;;;;;;12.65;1.45;;;23.30;75.90;;;;;;4979461;28;20488;-67
2021/04/15 00:38:23;;;;;;;10.60;1.95;;;23.50;73.80;;;;;;4986114;28;20090;-67
2021/04/15 00:40:52;;;;;;;6.15;1.20;;;23.30;75.50;;;;;;4986124;28;20145;-68
2021/04/15 00:43:22;;;;;;;8.43;1.05;;;23.50;76.20;;;;;;4985008;28;20046;-67
2021/04/15 00:45:50;;;;;;;8.55;1.30;;;23.40;74.80;;;;;;4983337;28;20529;-67
2021/04/15 00:48:26;;;;;;;6.05;1.17;;;23.50;75.30;;;;;;4987705;28;20031;-67
2021/04/15 00:51:04;;;;;;;10.82;1.42;;;23.80;73.50;;;;;;4983292;28;20054;-67
2021/04/15 00:53:40;;;;;;;8.80;0.95;;;23.80;74.20;;;;;;4989200;28;20034;-68
2021/04/15 00:56:08;;;;;;;5.53;1.13;;;23.70;74.70;;;;;;4981653;28;20030;-67
2021/04/15 00:58:37;;;;;;;7.22;1.30;;;23.80;74.40;;;;;;4986338;28;20039;-67
2021/04/15 01:01:06;;;;;;;6.22;1.27;;;24.00;75.80;;;;;;4985069;28;20026;-67
2021/04/15 01:03:35;;;;;;;8.27;1.20;;;24.00;75.00;;;;;;4984426;28;20141;-67
2021/04/15 01:06:03;;;;;;;7.30;1.23;;;24.00;73.40;;;;;;4984367;28;20031;-67
2021/04/15 01:08:30;;;;;;;6.78;1.65;;;23.60;74.20;;;;;;4986066;28;20031;-67
2021/04/15 01:10:58;;;;;;;5.50;1.40;;;23.70;72.90;;;;;;4982163;28;20022;-67
2021/04/15 01:13:56;;;;;;;6.38;1.17;;;23.60;73.30;;;;;;4986758;28;20471;-66
2021/04/15 01:16:34;;;;;;;3.78;1.05;;;24.10;74.20;;;;;;4986503;28;20065;-66
2021/04/15 01:19:06;;;;;;;3.47;0.85;;;24.10;73.20;;;;;;4989863;28;20038;-66
2021/04/15 01:22:06;;;;;;;7.22;1.65;;;24.20;73.30;;;;;;4988069;28;20029;-66
2021/04/15 01:24:55;;;;;;;6.88;1.65;;;24.60;72.50;;;;;;4989125;28;20184;-67
2021/04/15 01:27:45;;;;;;;5.15;1.25;;;25.00;70.90;;;;;;4988862;28;20570;-67
2021/04/15 01:30:53;;;;;;;5.95;1.27;;;24.10;72.10;;;;;;4985390;28;20070;-68
2021/04/15 01:33:30;;;;;;;3.00;0.82;;;24.10;73.00;;;;;;4953151;28;20057;-68
2021/04/15 01:36:03;;;;;;;5.60;1.20;;;24.40;71.40;;;;;;4984001;28;20035;-68
2021/04/15 01:39:14;;;;;;;10.00;1.60;;;24.50;73.00;;;;;;4986872;28;20034;-68
2021/04/15 01:41:54;;;;;;;6.90;0.90;;;25.00;70.90;;;;;;4965990;28;20080;-68
2021/04/15 01:44:47;;;;;;;6.93;1.00;;;24.40;71.20;;;;;;4979445;28;20042;-66
2021/04/15 01:47:21;;;;;;;7.88;1.23;;;24.40;71.50;;;;;;4982836;28;20059;-67
2021/04/15 01:49:55;;;;;;;5.88;1.15;;;24.40;70.60;;;;;;4988327;28;20077;-67
2021/04/15 01:52:24;;;;;;;;;;;24.30;71.80;;;;;;4983982;28;20035;-67
2021/04/15 01:55:20;;;;;;;5.45;1.17;;;24.40;71.30;;;;;;4990640;28;20430;-67
2021/04/15 01:58:03;;;;;;;5.20;1.17;;;24.70;71.60;;;;;;4984873;28;20046;-67
2021/04/15 02:00:33;;;;;;;6.47;1.00;;;24.90;70.60;;;;;;4986702;28;20410;-67
2021/04/15 02:03:23;;;;;;;6.47;2.10;;;24.50;70.10;;;;;;4987063;28;20022;-67
2021/04/15 02:05:56;;;;;;;7.72;1.10;;;24.60;71.20;;;;;;4984281;28;20050;-67
2021/04/15 02:08:28;;;;;;;9.00;1.05;;;24.90;71.20;;;;;;4986444;28;20113;-67
2021/04/15 02:11:01;;;;;;;11.02;1.40;;;25.00;70.30;;;;;;4987172;28;20022;-67
2021/04/15 02:13:32;;;;;;;7.07;1.00;;;24.90;72.10;;;;;;4987874;28;20031;-67
2021/04/15 02:16:04;;;;;;;8.60;1.48;;;25.20;70.70;;;;;;4990315;28;20426;-67
2021/04/15 02:18:52;;;;;;;7.40;1.02;;;25.50;68.00;;;;;;4990553;28;20487;-67
2021/04/15 02:21:39;;;;;;;3.72;0.85;;;25.70;69.60;;;;;;4991962;28;20467;-67
2021/04/15 02:24:32;;;;;;;5.70;1.00;;;25.80;67.90;;;;;;4990843;28;20545;-67
2021/04/15 02:27:19;;;;;;;2.78;0.80;;;25.80;67.50;;;;;;4991084;28;20360;-67
2021/04/15 02:29:53;;;;;;;3.38;1.08;;;25.40;68.60;;;;;;4992360;28;20038;-67
2021/04/15 02:32:35;;;;;;;4.03;1.00;;;24.90;68.60;;;;;;4993639;28;20026;-67
2021/04/15 02:35:09;;;;;;;8.13;1.10;;;25.40;67.70;;;;;;4991322;28;20478;-67
2021/04/15 02:37:43;;;;;;;7.03;1.25;;;25.20;67.50;;;;;;4992023;28;20169;-67
2021/04/15 02:40:30;;;;;;;5.55;1.10;;;25.60;66.40;;;;;;4991715;28;20034;-67
2021/04/15 02:43:06;;;;;;;4.40;0.95;;;25.30;67.80;;;;;;4992068;28;20033;-67
2021/04/15 02:45:40;;;;;;;9.82;1.15;;;25.60;68.20;;;;;;4990589;28;20026;-66
2021/04/15 02:48:14;;;;;;;6.15;0.88;;;25.50;68.20;;;;;;4990758;28;20104;-67
2021/04/15 02:50:41;;;;;;;;;;;25.30;67.90;;;;;;4992030;28;20046;-67
2021/04/15 02:53:21;;;;;;;5.70;0.85;;;26.10;67.00;;;;;;4989511;28;19944;-67
2021/04/15 02:56:23;;;;;;;8.85;0.98;;;26.20;65.80;;;;;;4992202;28;20494;-67
2021/04/15 02:59:16;;;;;;;5.35;0.95;;;25.60;66.40;;;;;;4988700;28;20085;-67
2021/04/15 03:01:48;;;;;;;3.22;0.60;;;25.20;68.10;;;;;;4985167;28;20045;-67
2021/04/15 03:04:22;;;;;;;7.88;0.80;;;25.20;66.80;;;;;;4991216;28;20030;-67
2021/04/15 03:06:52;;;;;;;4.25;0.80;;;25.30;68.50;;;;;;4991151;28;20030;-67
2021/04/15 03:09:21;;;;;;;5.32;0.80;;;25.00;67.40;;;;;;4991318;28;20028;-67
2021/04/15 03:11:59;;;;;;;4.47;0.93;;;25.20;66.70;;;;;;4990316;28;20475;-68
2021/04/15 03:14:32;;;;;;;5.15;1.30;;;25.10;68.00;;;;;;4987378;28;20117;-68
2021/04/15 03:17:07;;;;;;;2.10;0.75;;;24.80;67.20;;;;;;4989407;28;20034;-68
2021/04/15 03:19:50;;;;;;;9.82;2.10;;;24.50;67.00;;;;;;4990979;28;20125;-68
2021/04/15 03:22:32;;;;;;;5.20;1.63;;;24.70;67.30;;;;;;4990262;28;20122;-68
2021/04/15 03:25:01;;;;;;;5.78;0.90;;;24.70;68.80;;;;;;4991946;28;20085;-68
2021/04/15 03:27:53;;;;;;;6.28;0.60;;;24.90;67.00;;;;;;4988830;28;20080;-69
2021/04/15 03:30:38;;;;;;;4.43;0.70;;;24.50;67.50;;;;;;4985712;28;20027;-68
2021/04/15 03:33:20;;;;;;;4.93;1.17;;;24.50;68.30;;;;;;4988284;28;20102;-68
2021/04/15 03:35:54;;;;;;;5.97;0.50;;;24.90;67.40;;;;;;4984546;28;20041;-68
2021/04/15 03:38:32;;;;;;;11.02;1.00;;;25.30;67.00;;;;;;4990413;28;20162;-68
2021/04/15 03:41:11;;;;;;;4.05;0.52;;;25.30;66.30;;;;;;4989487;28;20395;-68
2021/04/15 03:43:50;;;;;;;3.53;0.75;;;25.30;66.50;;;;;;4989762;28;20031;-68
2021/04/15 03:46:18;;;;;;;7.25;1.17;;;25.70;66.10;;;;;;4984686;28;20042;-68
2021/04/15 03:48:54;;;;;;;7.47;1.13;;;25.30;66.60;;;;;;4990630;28;20486;-68
2021/04/15 03:51:24;;;;;;;4.00;0.63;;;25.20;67.50;;;;;;4987784;28;20034;-67
2021/04/15 03:54:02;;;;;;;5.38;0.88;;;25.30;66.50;;;;;;4983931;28;20030;-68
2021/04/15 03:56:34;;;;;;;2.92;0.93;;;25.10;66.30;;;;;;4989877;28;20125;-69
2021/04/15 03:59:16;;;;;;;3.20;0.63;;;25.40;66.60;;;;;;4991857;28;20052;-68
2021/04/15 04:01:58;;;;;;;4.60;0.80;;;26.10;67.00;;;;;;4989631;28;20027;-68
2021/04/15 04:04:26;;;;;;;8.23;1.42;;;26.50;70.60;;;;;;4987362;28;20038;-68
2021/04/15 04:06:57;;;;;;;5.63;1.13;;;26.50;65.30;;;;;;4979852;28;20428;-69
2021/04/15 04:09:40;;;;;;;7.70;1.27;;;26.40;67.20;;;;;;4982110;28;20032;-69
2021/04/15 04:12:15;;;;;;;3.53;0.73;;;26.20;67.30;;;;;;4982845;28;20065;-68
2021/04/15 04:15:10;;;;;;;6.00;0.90;;;25.80;66.20;;;;;;4978836;28;20066;-68
2021/04/15 04:17:46;;;;;;;3.28;0.77;;;25.20;66.30;;;;;;4995142;28;20038;-68
2021/04/15 04:20:14;;;;;;;5.30;1.00;;;25.30;66.50;;;;;;4980744;28;20034;-69
2021/04/15 04:23:13;;;;;;;4.45;0.95;;;25.20;67.50;;;;;;4987227;28;20053;-68
2021/04/15 04:25:53;;;;;;;4.25;0.60;;;25.40;67.70;;;;;;4991850;28;20712;-69
2021/04/15 04:29:00;;;;;;;5.80;0.80;;;25.40;67.10;;;;;;4990066;28;20030;-69
2021/04/15 04:31:32;;;;;;;6.72;0.98;;;25.40;67.50;;;;;;4988571;28;20090;-69
2021/04/15 04:34:01;;;;;;;8.38;0.75;;;25.60;68.60;;;;;;4997677;28;20022;-69
2021/04/15 04:36:32;;;;;;;4.50;0.68;;;25.40;68.10;;;;;;4989641;28;20109;-69
2021/04/15 04:39:00;;;;;;;6.00;0.73;;;25.70;66.80;;;;;;4988591;28;20037;-69
2021/04/15 04:41:41;;;;;;;3.20;0.60;;;25.80;68.50;;;;;;4993255;28;20022;-69
2021/04/15 04:44:32;;;;;;;8.70;1.40;;;25.60;66.60;;;;;;4993955;28;20057;-69
2021/04/15 04:47:29;;;;;;;4.10;0.60;;;25.10;67.50;;;;;;4996839;28;20031;-69
2021/04/15 04:50:07;;;;;;;3.53;0.80;;;25.20;67.90;;;;;;4976535;28;20046;-69
2021/04/15 04:52:35;;;;;;;4.60;0.77;;;25.20;67.40;;;;;;4989908;28;20037;-69
2021/04/15 04:55:28;;;;;;;3.15;0.60;;;25.20;69.40;;;;;;4990053;28;20033;-69
2021/04/15 04:57:55;;;;;;;4.78;0.82;;;25.00;67.70;;;;;;4978906;28;20034;-69
2021/04/15 05:00:24;;;;;;;5.20;1.20;;;25.20;67.60;;;;;;4990869;28;20566;-69
2021/04/15 05:02:58;;;;;;;7.78;1.17;;;25.10;67.20;;;;;;5002095;28;20395;-68
2021/04/15 05:05:29;;;;;;;;;;;25.00;66.50;;;;;;4988134;28;20521;-69
2021/04/15 05:08:06;;;;;;;6.03;0.98;;;24.90;66.40;;;;;;4992218;28;19916;-68
2021/04/15 05:10:35;;;;;;;4.25;0.98;;;24.80;67.00;;;;;;4991082;28;20041;-68
2021/04/15 05:13:18;;;;;;;2.75;0.43;;;24.80;68.20;;;;;;4987735;28;20038;-68
2021/04/15 05:15:45;;;;;;;4.85;0.55;;;24.80;66.90;;;;;;4988665;28;20030;-68
2021/04/15 05:18:17;;;;;;;8.75;0.98;;;24.80;67.20;;;;;;4990058;28;20471;-68
2021/04/15 05:20:45;;;;;;;15.07;2.72;;;24.90;69.80;;;;;;4989326;28;20058;-68
2021/04/15 05:23:27;;;;;;;12.10;3.67;;;24.70;68.70;;;;;;4989397;28;20014;-68
2021/04/15 05:26:23;;;;;;;3.35;0.52;;;24.60;70.60;;;;;;4987489;28;20030;-69
2021/04/15 05:28:54;;;;;;;5.78;0.80;;;24.60;67.90;;;;;;4988580;28;20022;-68
2021/04/15 05:31:25;;;;;;;8.57;0.90;;;24.70;67.20;;;;;;4989366;28;20038;-69
2021/04/15 05:33:53;;;;;;;3.22;0.82;;;24.50;68.30;;;;;;4986382;28;20029;-68
2021/04/15 05:36:23;;;;;;;9.43;1.25;;;24.40;69.00;;;;;;4992625;28;20025;-68
2021/04/15 05:38:54;;;;;;;2.85;0.63;;;24.30;68.60;;;;;;4990097;28;20667;-68
2021/04/15 05:41:46;;;;;;;8.10;1.20;;;24.20;67.80;;;;;;4990155;28;20030;-68
2021/04/15 05:44:33;;;;;;;8.95;1.23;;;24.20;68.90;;;;;;4985824;28;20088;-68
2021/04/15 05:47:03;;;;;;;8.80;0.82;;;24.10;68.90;;;;;;4996962;28;20026;-68
2021/04/15 05:49:41;;;;;;;5.70;1.08;;;24.10;67.90;;;;;;4988978;28;20411;-68
2021/04/15 05:52:32;;;;;;;6.05;1.48;;;24.10;67.70;;;;;;4989826;28;20026;-68
2021/04/15 05:55:07;;;;;;;7.38;0.70;;;24.10;69.10;;;;;;4982577;28;20065;-69
2021/04/15 05:57:43;;;;;;;4.60;0.57;;;24.10;68.20;;;;;;4989178;28;20487;-69
2021/04/15 06:00:40;;;;;;;5.13;0.90;;;24.10;69.00;;;;;;4988463;28;20035;-70
2021/04/15 06:03:57;;;;;;;5.78;0.57;;;24.20;69.20;;;;;;4992180;28;20046;-68
2021/04/15 06:06:34;;;;;;;6.35;0.60;;;24.30;69.60;;;;;;4983743;28;20061;-68
2021/04/15 06:09:02;;;;;;;7.18;0.90;;;24.30;68.40;;;;;;4988403;28;20483;-68
2021/04/15 06:11:38;;;;;;;2.35;0.77;;;24.20;73.60;;;;;;4986555;28;20108;-68
2021/04/15 06:14:33;;;;;;;5.78;1.17;;;24.00;69.10;;;;;;4984639;28;20045;-68
2021/04/15 06:17:17;;;;;;;7.53;1.15;;;23.90;70.00;;;;;;4992172;28;20398;-69
2021/04/15 06:20:11;;;;;;;6.63;1.00;;;23.80;73.40;;;;;;4987761;28;20042;-68
2021/04/15 06:22:45;;;;;;;6.22;1.00;;;23.70;73.30;;;;;;4993229;28;20077;-68
2021/04/15 06:25:27;;;;;;;5.88;1.17;;;23.60;73.20;;;;;;4987624;28;20038;-69
2021/04/15 06:28:01;;;;;;;6.80;0.85;;;23.70;73.00;;;;;;4988258;28;20062;-68
2021/04/15 06:30:49;;;;;;;10.57;6.72;;;23.70;70.40;;;;;;4988791;28;20019;-68
2021/04/15 06:33:19;;;;;;;4.28;1.17;;;23.50;75.00;;;;;;4986793;28;20027;-68
2021/04/15 06:35:52;;;;;;;21.27;15.07;;;23.40;72.90;;;;;;4988266;28;20030;-68
2021/04/15 06:38:49;;;;;;;8.67;5.17;;;23.30;73.60;;;;;;4992700;28;20101;-68
2021/04/15 06:41:52;;;;;;;10.98;3.65;;;23.30;77.10;;;;;;4988147;28;20042;-68
2021/04/15 06:44:58;;;;;;;73.32;60.80;;;23.20;72.90;;;;;;4989997;28;20026;-68
2021/04/15 06:47:49;;;;;;;7.13;4.53;;;23.10;80.00;;;;;;4980502;28;20450;-67
2021/04/15 06:50:43;;;;;;;35.63;27.05;;;23.00;80.70;;;;;;4983646;28;20053;-68
2021/04/15 06:53:11;;;;;;;11.90;4.32;;;22.90;82.70;;;;;;4985815;28;20023;-68
2021/04/15 06:55:56;;;;;;;4.25;1.58;;;22.80;87.90;;;;;;4988381;28;20030;-69
2021/04/15 06:58:36;;;;;;;15.82;10.23;;;22.60;89.60;;;;;;5001138;28;20022;-68
2021/04/15 07:01:24;;;;;;;6.95;1.35;;;22.40;90.30;;;;;;4992029;28;20077;-68
2021/04/15 07:04:06;;;;;;;7.10;2.00;;;22.30;90.90;;;;;;4990782;28;20141;-69
2021/04/15 07:06:49;;;;;;;9.77;1.67;;;22.20;91.90;;;;;;4991624;28;20019;-69
2021/04/15 07:09:22;;;;;;;7.88;2.35;;;22.00;92.60;;;;;;4995125;28;20383;-69
2021/04/15 07:12:16;;;;;;;7.50;1.40;;;21.90;93.30;;;;;;4989766;28;20030;-69
2021/04/15 07:15:05;;;;;;;4.95;1.00;;;21.70;93.80;;;;;;4989963;28;20445;-69
2021/04/15 07:18:09;;;;;;;6.10;1.70;;;21.70;94.50;;;;;;4991907;28;20455;-69
2021/04/15 07:21:12;;;;;;;9.15;1.42;;;21.60;94.70;;;;;;4986233;28;20502;-69
2021/04/15 07:24:11;;;;;;;7.55;1.88;;;21.40;95.70;;;;;;4998663;28;20398;-69
2021/04/15 07:27:16;;;;;;;6.03;1.52;;;21.30;96.30;;;;;;4987906;28;20045;-69
2021/04/15 07:30:01;;;;;;;;;;;21.40;95.90;;;;;;4991742;28;20034;-69
2021/04/15 07:32:34;;;;;;;4.68;1.15;;;21.30;96.10;;;;;;4985958;28;19916;-69
2021/04/15 07:35:22;;;;;;;9.80;4.45;;;21.20;96.20;;;;;;4991333;28;20031;-69
2021/04/15 07:38:15;;;;;;;8.88;3.15;;;21.10;97.10;;;;;;4992276;28;20428;-69
2021/04/15 07:41:05;;;;;;;5.07;1.55;;;21.10;97.50;;;;;;4991025;28;20049;-70
2021/04/15 07:44:06;;;;;;;6.18;0.90;;;21.10;97.80;;;;;;4991020;28;20033;-69
2021/04/15 07:46:57;;;;;;;10.65;1.85;;;21.10;98.30;;;;;;4977060;28;20027;-69
2021/04/15 07:49:49;;;;;;;8.85;1.67;;;21.10;98.50;;;;;;4993929;28;20569;-69
2021/04/15 07:52:35;;;;;;;9.93;1.10;;;21.00;98.70;;;;;;4990607;28;20105;-67
2021/04/15 07:55:32;;;;;;;9.27;1.38;;;21.00;99.00;;;;;;4991986;28;20501;-69
2021/04/15 07:58:23;;;;;;;4.30;1.48;;;21.00;98.80;;;;;;4994544;28;20034;-69
2021/04/15 08:01:18;;;;;;;7.55;0.93;;;20.90;98.90;;;;;;4991444;28;20035;-68
2021/04/15 08:04:03;;;;;;;9.63;1.55;;;20.80;99.50;;;;;;4994420;28;20598;-69
2021/04/15 08:07:01;;;;;;;5.82;1.40;;;20.70;99.90;;;;;;4993954;28;20022;-68
2021/04/15 08:10:14;;;;;;;6.63;1.27;;;20.60;99.90;;;;;;4993489;28;20037;-69
2021/04/15 08:12:56;;;;;;;7.32;1.67;;;20.60;99.90;;;;;;4967964;28;20070;-69
2021/04/15 08:15:27;;;;;;;7.68;1.17;;;20.60;99.90;;;;;;4989466;28;20030;-69
2021/04/15 08:18:21;;;;;;;9.10;2.08;;;20.50;99.90;;;;;;4994136;28;20049;-69
2021/04/15 08:21:09;;;;;;;6.97;1.40;;;20.50;99.90;;;;;;4994229;28;20089;-69
2021/04/15 08:23:43;;;;;;;6.20;1.48;;;20.50;99.90;;;;;;4993624;28;20386;-69
2021/04/15 08:26:58;;;;;;;5.75;1.25;;;20.50;99.90;;;;;;4994294;28;20023;-69
2021/04/15 08:30:01;;;;;;;5.03;1.27;;;20.40;99.90;;;;;;4960274;28;20617;-68
2021/04/15 08:33:04;;;;;;;7.05;1.85;;;20.30;99.90;;;;;;4972291;28;20372;-69
2021/04/15 08:36:12;;;;;;;8.80;1.83;;;20.30;99.90;;;;;;4992209;28;20035;-69
2021/04/15 08:39:00;;;;;;;8.27;1.90;;;20.30;99.90;;;;;;4998772;28;20045;-69
2021/04/15 08:42:04;;;;;;;10.13;2.20;;;20.30;99.90;;;;;;4992534;28;20426;-69
2021/04/15 08:45:10;;;;;;;9.07;2.55;;;20.30;99.90;;;;;;4979402;28;20499;-68
2021/04/15 08:47:49;;;;;;;8.27;2.60;;;20.10;99.90;;;;;;4980832;28;20060;-69
2021/04/15 08:50:43;;;;;;;9.18;3.40;;;20.20;99.90;;;;;;4992824;28;20053;-69
2021/04/15 08:53:18;;;;;;;;;;;20.20;99.90;;;;;;4989941;28;20085;-69
2021/04/15 08:56:03;;;;;;;;;;;20.20;99.90;;;;;;4993810;28;19909;-69
2021/04/15 08:58:51;;;;;;;14.48;2.95;;;20.30;99.90;;;;;;4993251;28;19916;-68
2021/04/15 09:01:31;;;;;;;7.68;1.92;;;20.40;99.90;;;;;;4992636;28;20066;-68
2021/04/15 09:04:18;;;;;;;10.93;2.17;;;20.30;99.90;;;;;;4990997;28;20018;-68
2021/04/15 09:07:16;;;;;;;10.57;2.45;;;20.20;99.90;;;;;;4990115;28;20061;-69
2021/04/15 09:10:13;;;;;;;10.55;2.47;;;20.10;99.90;;;;;;4993124;28;20050;-69
2021/04/15 09:12:52;;;;;;;10.20;2.22;;;20.00;99.90;;;;;;4992585;28;20033;-69
2021/04/15 09:15:56;;;;;;;7.10;1.92;;;20.00;99.90;;;;;;4993927;28;20030;-69
2021/04/15 09:19:07;;;;;;;11.97;3.50;;;20.10;99.90;;;;;;4991727;28;20138;-69
2021/04/15 09:21:53;;;;;;;10.52;3.22;;;20.10;99.90;;;;;;4993703;28;20121;-69
2021/04/15 09:24:48;;;;;;;7.72;2.92;;;20.10;99.90;;;;;;4992595;28;20101;-69
2021/04/15 09:27:31;;;;;;;6.38;1.60;;;20.20;99.90;;;;;;4991790;28;20038;-69
2021/04/15 09:30:35;;;;;;;8.73;2.28;;;20.30;99.90;;;;;;4993572;28;20382;-69
2021/04/15 09:33:18;;;;;;;7.18;1.23;;;20.30;99.90;;;;;;4988427;28;20121;-69
2021/04/15 09:35:51;;;;;;;7.18;1.63;;;20.20;99.90;;;;;;4993370;28;20496;-69
2021/04/15 09:38:55;;;;;;;5.53;1.58;;;20.50;99.90;;;;;;4993442;28;20022;-69
2021/04/15 09:41:58;;;;;;;9.30;3.08;;;20.50;97.60;;;;;;4993018;28;20113;-69
2021/04/15 09:44:46;;;;;;;5.88;1.77;;;20.70;93.90;;;;;;4993357;28;20517;-69
2021/04/15 09:47:36;;;;;;;7.22;1.73;;;20.80;92.80;;;;;;4993402;28;20471;-68
2021/04/15 09:50:11;;;;;;;4.90;1.15;;;20.80;93.40;;;;;;4973875;28;20519;-69
2021/04/15 09:52:43;;;;;;;8.85;1.65;;;20.80;93.20;;;;;;4973665;28;20472;-69
2021/04/15 09:55:37;;;;;;;6.72;1.27;;;20.80;94.20;;;;;;4973738;28;20490;-69
2021/04/15 09:58:31;;;;;;;6.93;2.03;;;20.80;95.30;;;;;;4982437;28;20030;-69
2021/04/15 10:01:09;;;;;;;5.85;1.73;;;20.70;95.50;;;;;;4993038;28;20510;-68
2021/04/15 10:03:57;;;;;;;7.97;1.15;;;20.80;93.30;;;;;;4992915;28;20483;-68
2021/04/15 10:06:36;;;;;;;12.10;2.97;;;20.80;92.90;;;;;;4992751;28;20026;-69
2021/04/15 10:09:22;;;;;;;10.98;2.47;;;20.70;92.00;;;;;;4992822;28;20022;-68
2021/04/15 10:11:52;;;;;;;8.93;3.33;;;20.70;91.70;;;;;;4991634;28;20482;-69
2021/04/15 10:14:37;;;;;;;11.90;1.92;;;20.60;91.00;;;;;;4993119;28;20454;-69
2021/04/15 10:17:23;;;;;;;9.07;2.33;;;20.60;90.70;;;;;;4993198;28;20014;-69
2021/04/15 10:20:08;;;;;;;13.82;2.65;;;20.60;89.80;;;;;;4992835;28;20062;-69
2021/04/15 10:23:02;;;;;;;7.38;1.85;;;20.60;89.40;;;;;;4992883;28;20501;-69
2021/04/15 10:25:39;;;;;;;10.65;3.20;;;20.50;89.20;;;;;;4991774;28;20082;-69
2021/04/15 10:28:27;;;;;;;7.95;1.27;;;20.40;89.80;;;;;;4988739;28;20054;-68
2021/04/15 10:31:03;;;;;;;9.25;2.08;;;20.50;88.80;;;;;;4991664;28;20065;-68
2021/04/15 10:33:51;;;;;;;10.70;1.85;;;20.40;89.70;;;;;;4971549;28;20110;-68
2021/04/15 10:36:45;;;;;;;10.77;2.60;;;20.30;89.40;;;;;;4981690;28;20023;-69
2021/04/15 10:39:42;;;;;;;7.88;2.08;;;20.30;90.00;;;;;;4976905;28;20536;-69
2021/04/15 10:42:35;;;;;;;4.13;1.02;;;20.30;90.20;;;;;;4976933;28;20026;-68
2021/04/15 10:45:14;;;;;;;6.82;1.65;;;20.20;90.20;;;;;;4977141;28;20042;-69
2021/04/15 10:48:41;;;;;;;7.90;1.30;;;20.20;90.20;;;;;;4978699;28;20019;-68
2021/04/15 10:51:33;;;;;;;4.72;0.90;;;20.20;90.80;;;;;;4977380;28;20050;-69
2021/04/15 10:54:30;;;;;;;6.10;1.00;;;20.10;90.90;;;;;;4994214;28;20034;-68
2021/04/15 10:57:01;;;;;;;9.25;1.98;;;20.10;91.20;;;;;;4995324;28;20035;-68
2021/04/15 10:59:35;;;;;;;6.50;1.38;;;20.10;91.20;;;;;;4996249;28;20430;-67
2021/04/15 11:02:23;;;;;;;5.93;1.10;;;20.10;91.10;;;;;;5011255;28;20036;-68
2021/04/15 11:04:55;;;;;;;4.00;0.93;;;20.00;90.40;;;;;;4994874;28;20046;-67
2021/04/15 11:07:28;;;;;;;3.75;0.80;;;20.00;90.50;;;;;;4995979;28;20029;-68
2021/04/15 11:10:07;;;;;;;7.70;1.97;;;20.00;90.40;;;;;;4995956;28;20022;-68
2021/04/15 11:12:34;;;;;;;6.63;2.50;;;20.00;90.00;;;;;;4996055;28;20628;-68
2021/04/15 11:15:30;;;;;;;6.35;1.00;;;20.00;90.20;;;;;;4995912;28;20026;-68
2021/04/15 11:18:08;;;;;;;4.97;0.95;;;19.90;90.30;;;;;;4995616;28;20030;-68
2021/04/15 11:20:36;;;;;;;5.57;1.30;;;19.90;90.40;;;;;;4995855;28;20037;-68
2021/04/15 11:23:27;;;;;;;8.75;1.70;;;19.90;90.20;;;;;;4995717;28;20022;-68
2021/04/15 11:26:09;;;;;;;5.47;1.05;;;19.90;90.70;;;;;;4995777;28;20050;-68
2021/04/15 11:28:36;;;;;;;6.55;0.93;;;19.90;90.80;;;;;;4995379;28;20476;-68
2021/04/15 11:31:12;;;;;;;8.98;1.20;;;19.90;90.80;;;;;;4989946;28;20026;-67
2021/04/15 11:33:46;;;;;;;4.65;1.08;;;19.80;90.60;;;;;;4992896;28;20122;-68
2021/04/15 11:36:15;;;;;;;4.87;1.20;;;19.80;90.50;;;;;;4975933;28;20029;-67
2021/04/15 11:38:46;;;;;;;7.15;1.27;;;19.80;90.60;;;;;;4976107;28;20253;-68
2021/04/15 11:41:21;;;;;;;4.38;1.38;;;19.70;90.70;;;;;;4993866;28;20030;-68
2021/04/15 11:44:01;;;;;;;4.53;1.20;;;19.70;90.70;;;;;;4995331;28;20015;-67
2021/04/15 11:46:49;;;;;;;4.65;1.00;;;19.70;90.70;;;;;;4994285;28;20033;-68
2021/04/15 11:49:37;;;;;;;6.13;1.45;;;19.60;90.80;;;;;;4993274;28;20058;-67
2021/04/15 11:52:32;;;;;;;4.57;1.23;;;19.50;91.40;;;;;;4994789;28;20022;-68
2021/04/15 11:55:02;;;;;;;6.18;1.58;;;19.50;90.70;;;;;;4992927;28;20360;-68
2021/04/15 11:57:41;;;;;;;8.25;2.17;;;19.50;90.40;;;;;;4989649;28;20503;-68
2021/04/15 12:00:21;;;;;;;8.88;1.40;;;19.50;91.20;;;;;;4990573;28;20097;-68
2021/04/15 12:03:26;;;;;;;5.63;1.23;;;19.40;91.90;;;;;;4994143;28;20022;-67
2021/04/15 12:05:56;;;;;;;;;;;19.40;91.60;;;;;;4990076;28;20042;-67
2021/04/15 12:08:34;;;;;;;5.60;1.15;;;19.30;92.00;;;;;;4992038;28;19910;-68
2021/04/15 12:11:15;;;;;;;3.63;0.93;;;19.20;94.00;;;;;;4991727;28;20077;-68
2021/04/15 12:14:03;;;;;;;6.63;1.10;;;19.10;92.50;;;;;;4993839;28;20101;-67
2021/04/15 12:16:48;;;;;;;6.88;1.30;;;19.20;90.20;;;;;;4989559;28;20054;-68
2021/04/15 12:19:23;;;;;;;7.07;1.02;;;19.20;90.50;;;;;;4994440;28;20053;-67
2021/04/15 12:22:04;;;;;;;6.03;1.70;;;19.30;89.70;;;;;;4992959;28;20022;-68
2021/04/15 12:24:47;;;;;;;5.40;1.25;;;19.30;88.90;;;;;;4993272;28;20041;-67
2021/04/15 12:27:22;;;;;;;7.18;1.27;;;19.40;88.60;;;;;;4993942;28;20030;-67
2021/04/15 12:30:05;;;;;;;8.23;1.20;;;19.50;87.90;;;;;;4994401;28;20022;-68
2021/04/15 12:32:50;;;;;;;6.03;1.13;;;19.50;87.90;;;;;;4993352;28;20029;-68
2021/04/15 12:35:29;;;;;;;7.40;1.52;;;19.50;87.10;;;;;;4986276;28;20560;-68
2021/04/15 12:38:22;;;;;;;5.80;1.05;;;19.50;87.10;;;;;;4980977;28;20023;-68
2021/04/15 12:41:01;;;;;;;5.05;1.30;;;19.50;87.40;;;;;;4988692;28;20038;-68
2021/04/15 12:43:31;;;;;;;6.13;1.13;;;19.40;87.50;;;;;;4993779;28;20169;-68
2021/04/15 12:46:13;;;;;;;8.23;1.88;;;19.40;87.90;;;;;;4993679;28;20065;-68
2021/04/15 12:48:55;;;;;;;9.38;1.92;;;19.40;87.80;;;;;;4993856;28;20110;-66
2021/04/15 12:51:24;;;;;;;4.07;1.10;;;19.40;88.40;;;;;;4993206;28;20141;-67
2021/04/15 12:53:52;;;;;;;4.60;1.10;;;19.30;88.10;;;;;;4978328;28;20062;-67
2021/04/15 12:56:36;;;;;;;5.40;1.45;;;19.40;87.70;;;;;;4990124;28;20045;-67
2021/04/15 12:59:05;;;;;;;7.97;2.00;;;19.40;87.90;;;;;;4993329;28;20041;-67
2021/04/15 13:01:40;;;;;;;5.30;1.63;;;19.30;87.50;;;;;;4992833;28;20045;-68
2021/04/15 13:04:27;;;;;;;9.15;1.95;;;19.30;87.10;;;;;;4993093;28;20037;-68
2021/04/15 13:07:27;;;;;;;8.52;2.10;;;19.30;87.50;;;;;;4993095;28;20482;-68
2021/04/15 13:10:14;;;;;;;7.28;1.67;;;19.30;87.10;;;;;;4993060;28;20508;-68
2021/04/15 13:12:43;;;;;;;7.18;1.60;;;19.20;87.20;;;;;;4985516;28;20034;-68
2021/04/15 13:15:26;;;;;;;6.07;2.28;;;19.30;87.20;;;;;;4993228;28;20023;-68
2021/04/15 13:17:59;;;;;;;12.98;2.85;;;19.20;87.60;;;;;;4993183;28;20126;-68
2021/04/15 13:20:26;;;;;;;9.23;2.63;;;19.10;87.70;;;;;;4993523;28;20034;-68
2021/04/15 13:23:09;;;;;;;10.60;2.67;;;19.10;87.60;;;;;;4987870;28;20459;-68
2021/04/15 13:25:52;;;;;;;9.73;2.55;;;19.00;87.80;;;;;;4988806;28;20056;-68
2021/04/15 13:28:41;;;;;;;9.00;2.92;;;19.00;87.80;;;;;;4989929;28;20517;-68
2021/04/15 13:31:09;;;;;;;10.27;3.30;;;19.00;87.20;;;;;;4980176;28;20500;-67
2021/04/15 13:33:42;;;;;;;10.15;3.15;;;19.00;86.80;;;;;;4992294;28;20018;-67
2021/04/15 13:36:09;;;;;;;11.88;3.85;;;19.00;86.80;;;;;;4991858;28;20030;-67
2021/04/15 13:38:46;;;;;;;8.80;2.70;;;19.10;86.60;;;;;;5005840;28;20038;-68
2021/04/15 13:41:23;;;;;;;7.38;2.83;;;19.00;86.40;;;;;;4990912;28;20037;-67
2021/04/15 13:44:13;;;;;;;8.70;2.72;;;19.00;86.70;;;;;;4992276;28;20030;-67
2021/04/15 13:46:44;;;;;;;8.70;3.13;;;18.90;86.20;;;;;;4980846;28;20459;-68
2021/04/15 13:49:22;;;;;;;7.43;3.03;;;18.90;86.90;;;;;;4990372;28;20034;-69
2021/04/15 13:52:32;;;;;;;10.80;3.38;;;18.90;86.00;;;;;;4987734;28;20034;-69
2021/04/15 13:55:29;;;;;;;13.07;3.70;;;18.90;85.70;;;;;;4992418;28;20499;-69
2021/04/15 13:57:57;;;;;;;9.93;3.30;;;18.90;86.10;;;;;;4990217;28;20396;-69
2021/04/15 14:00:40;;;;;;;9.38;3.08;;;18.90;85.90;;;;;;4992336;28;20364;-68
2021/04/15 14:03:11;;;;;;;12.70;3.58;;;18.80;85.90;;;;;;5002764;28;20053;-68